Time;durP1;ratioP1;P1;durP2;ratioP2;P2;SDS_P1;SDS_P2;PMS_P1;PMS_P2;Temp;Humidity;BMP_temperature;BMP_pressure;BME280_temperature;BME280_humidity;BME280_pressure;Samples;Min_cycle;Max_cycle;Signal;HPM_P1;HPM_P2
2022/11/15 00:00:58;;;;;;;34.65;21.80;;;;;;;5.70;92.44;100736.31;1700237;84;25482;-60
2022/11/15 00:03:27;;;;;;;34.65;22.20;;;;;;;5.70;92.44;100733.62;1699989;84;27378;-62
2022/11/15 00:05:54;;;;;;;31.55;19.57;;;;;;;5.72;92.48;100729.34;1699812;84;25789;-60
2022/11/15 00:08:20;;;;;;;38.45;23.52;;;;;;;5.72;92.51;100728.00;1701133;84;25648;-60
2022/11/15 00:10:57;;;;;;;36.90;23.85;;;;;;;5.71;92.37;100727.75;1709295;83;25420;-60
2022/11/15 00:13:25;;;;;;;36.48;23.15;;;;;;;5.68;92.42;100718.34;1714142;83;25571;-60
2022/11/15 00:15:52;;;;;;;39.48;24.43;;;;;;;5.65;92.51;100710.81;1714125;83;27353;-59
2022/11/15 00:18:19;;;;;;;37.45;23.10;;;;;;;5.65;92.58;100721.55;1661894;86;25471;-59
2022/11/15 00:20:45;;;;;;;39.05;23.67;;;;;;;5.63;92.71;100714.30;1726487;83;25622;-59
2022/11/15 00:23:11;;;;;;;41.83;26.15;;;;;;;5.64;92.80;100707.08;1726425;83;25504;-60
2022/11/15 00:25:38;;;;;;;40.05;24.52;;;;;;;5.64;92.96;100700.36;1726470;83;25555;-59
2022/11/15 00:28:04;;;;;;;39.10;25.15;;;;;;;5.65;92.87;100701.96;1723296;81;27412;-59
2022/11/15 00:30:31;;;;;;;39.30;24.57;;;;;;;5.66;93.08;100703.04;1719313;83;27232;-60
2022/11/15 00:33:05;;;;;;;41.58;24.75;;;;;;;5.67;93.09;100694.44;1719447;83;25422;-59
2022/11/15 00:35:34;;;;;;;41.10;24.60;;;;;;;5.70;93.13;100693.91;1719450;83;25527;-61
2022/11/15 00:38:02;;;;;;;42.17;24.95;;;;;;;5.71;93.18;100687.48;1719646;83;25482;-59
2022/11/15 00:40:30;;;;;;;40.73;24.95;;;;;;;5.70;93.08;100685.31;1719499;83;27888;-59
2022/11/15 00:42:58;;;;;;;43.52;26.27;;;;;;;5.69;92.97;100674.33;1719381;83;25745;-59
2022/11/15 00:45:25;;;;;;;41.85;25.45;;;;;;;5.71;93.23;100672.72;1719507;83;25556;-59
2022/11/15 00:47:52;;;;;;;43.08;26.65;;;;;;;5.73;93.18;100677.28;1719489;83;25650;-60
2022/11/15 00:50:20;;;;;;;50.05;27.35;;;;;;;5.72;93.22;100668.95;1719470;83;25617;-60
2022/11/15 00:52:46;;;;;;;43.08;26.35;;;;;;;5.71;93.13;100668.16;1719444;83;27992;-59
2022/11/15 00:55:19;;;;;;;48.25;28.05;;;;;;;5.70;93.02;100657.14;1719316;83;25859;-60
2022/11/15 00:57:46;;;;;;;47.48;27.58;;;;;;;5.70;93.18;100655.80;1719453;83;25680;-60
2022/11/15 01:00:14;;;;;;;46.30;27.27;;;;;;;5.69;93.30;100652.86;1719412;83;25890;-60
2022/11/15 01:02:41;;;;;;;48.42;27.55;;;;;;;5.69;93.22;100643.47;1719465;83;25577;-60
2022/11/15 01:05:08;;;;;;;43.02;26.57;;;;;;;5.68;93.21;100638.36;1719427;83;29484;-60
2022/11/15 01:07:35;;;;;;;47.88;27.07;;;;;;;5.67;93.32;100629.52;1719387;83;25465;-60
2022/11/15 01:10:02;;;;;;;47.73;27.25;;;;;;;5.66;93.32;100630.58;1728044;80;25472;-59
2022/11/15 01:12:28;;;;;;;43.42;25.65;;;;;;;5.63;93.27;100630.30;1764246;81;25576;-60
2022/11/15 01:14:55;;;;;;;46.40;26.12;;;;;;;5.59;93.31;100625.47;1764325;81;25350;-60
2022/11/15 01:17:22;;;;;;;46.65;27.58;;;;;;;5.57;93.35;100616.89;1764288;81;29421;-59
2022/11/15 01:19:48;;;;;;;47.75;27.58;;;;;;;5.54;93.39;100620.64;1764301;80;25932;-59
2022/11/15 01:22:15;;;;;;;45.43;26.37;;;;;;;5.52;93.58;100618.77;1714717;83;25475;-59
2022/11/15 01:24:42;;;;;;;47.23;26.55;;;;;;;5.51;93.63;100618.48;1764280;80;25441;-60
2022/11/15 01:27:09;;;;;;;49.27;27.85;;;;;;;5.48;93.63;100617.67;1764373;81;25373;-59
2022/11/15 01:29:35;;;;;;;49.75;27.80;;;;;;;5.49;93.78;100612.59;1764302;81;27444;-59
2022/11/15 01:32:03;;;;;;;45.98;26.27;;;;;;;5.48;93.79;100605.59;1764224;81;25561;-59
2022/11/15 01:34:30;;;;;;;48.78;27.02;;;;;;;5.47;93.82;100607.48;1764337;81;25557;-60
2022/11/15 01:36:57;;;;;;;46.05;26.52;;;;;;;5.49;93.95;100601.86;1764281;81;25467;-58
2022/11/15 01:39:23;;;;;;;47.65;27.42;;;;;;;5.51;94.00;100597.02;1764351;81;25404;-60
2022/11/15 01:41:50;;;;;;;42.20;25.65;;;;;;;5.50;94.04;100598.08;1764270;81;29437;-60
2022/11/15 01:44:43;;;;;;;44.95;26.33;;;;;;;5.47;93.90;100589.25;1764236;81;25456;-60
2022/11/15 01:47:23;;;;;;;48.05;25.88;;;;;;;5.46;93.93;100588.42;1764314;81;25420;-60
2022/11/15 01:50:02;;;;;;;46.42;25.35;;;;;;;5.44;93.98;100581.19;1760419;81;27311;-58
2022/11/15 01:52:32;;;;;;;47.33;27.00;;;;;;;5.43;94.08;100567.48;1757799;81;25393;-58
2022/11/15 01:55:04;;;;;;;52.15;27.87;;;;;;;5.43;94.20;100562.13;1764287;81;27333;-59
2022/11/15 01:57:32;;;;;;;47.27;26.00;;;;;;;5.41;94.29;100560.25;1717710;83;25564;-58
2022/11/15 02:00:01;;;;;;;49.42;24.95;;;;;;;5.42;94.39;100553.83;1764319;81;25593;-59
2022/11/15 02:02:28;;;;;;;50.25;26.73;;;;;;;5.41;94.36;100552.20;1721320;83;25856;-60
2022/11/15 02:04:54;;;;;;;48.52;25.85;;;;;;;5.41;94.45;100553.03;1764419;81;25633;-60
2022/11/15 02:07:23;;;;;;;51.75;27.42;;;;;;;5.41;94.53;100570.47;1764386;80;27403;-60
2022/11/15 02:09:51;;;;;;;48.17;27.90;;;;;;;5.42;94.56;100556.50;1764284;81;25639;-59
2022/11/15 02:12:21;;;;;;;49.42;27.70;;;;;;;5.43;94.57;100554.08;1764260;80;25382;-58
2022/11/15 02:14:52;;;;;;;56.33;28.62;;;;;;;5.43;94.56;100554.08;1764237;81;25448;-58
2022/11/15 02:18:04;;;;;;;54.40;28.07;;;;;;;5.41;94.55;100544.98;1721278;83;25500;-59
2022/11/15 02:20:44;;;;;;;52.70;28.87;;;;;;;5.41;94.55;100544.98;1764305;81;27231;-60
2022/11/15 02:23:38;;;;;;;57.08;30.45;;;;;;;5.40;94.60;100554.63;1720865;83;25486;-57
2022/11/15 02:26:34;;;;;;;56.98;29.65;;;;;;;5.39;94.61;100540.94;1764320;80;25606;-59
2022/11/15 02:29:20;;;;;;;52.40;29.77;;;;;;;5.35;94.64;100539.33;1764250;81;25416;-56
2022/11/15 02:32:21;;;;;;;57.73;31.90;;;;;;;5.32;94.71;100531.81;1764395;81;25441;-58
2022/11/15 02:35:04;;;;;;;59.53;31.70;;;;;;;5.31;94.79;100534.77;1764257;81;27333;-59
2022/11/15 02:37:49;;;;;;;55.95;30.68;;;;;;;5.32;95.04;100533.16;1720408;83;25611;-59
2022/11/15 02:40:54;;;;;;;62.45;31.52;;;;;;;5.35;95.16;100534.52;1764049;81;25545;-59
2022/11/15 02:49:31;;;;;;;61.28;32.20;;;;;;;5.32;95.08;100540.41;1701756;83;27359;-59
2022/11/15 02:51:58;;;;;;;59.33;32.48;;;;;;;5.30;95.12;100531.28;1702543;83;25738;-60
2022/11/15 02:54:31;;;;;;;64.03;33.40;;;;;;;5.26;95.18;100542.29;1702736;83;25621;-60
2022/11/15 02:57:11;;;;;;;62.40;32.33;;;;;;;5.22;95.22;100526.45;1669112;84;25656;-58
2022/11/15 03:00:06;;;;;;;60.78;30.70;;;;;;;5.20;95.37;100519.21;1701735;83;25459;-59
2022/11/15 03:03:16;;;;;;;61.28;31.30;;;;;;;5.20;95.46;100512.50;1702664;83;27397;-59
2022/11/15 03:05:54;;;;;;;60.23;30.68;;;;;;;5.20;95.56;100520.55;1702515;84;25721;-59
2022/11/15 03:08:46;;;;;;;56.25;28.17;;;;;;;5.19;95.62;100508.20;1690265;84;25562;-58
2022/11/15 03:11:18;;;;;;;63.92;30.80;;;;;;;5.18;95.85;100503.38;1704169;84;25667;-58
2022/11/15 03:13:59;;;;;;;58.92;28.77;;;;;;;5.17;95.79;100512.48;1704941;84;25602;-58
2022/11/15 03:17:04;;;;;;;57.05;29.75;;;;;;;5.14;95.88;100513.05;1707171;83;27043;-61
2022/11/15 03:19:47;;;;;;;54.93;29.05;;;;;;;5.12;95.88;100501.76;1721413;81;25629;-59
2022/11/15 03:22:24;;;;;;;53.23;28.65;;;;;;;5.10;96.11;100490.50;1641111;85;25703;-58
2022/11/15 03:24:56;;;;;;;54.75;27.93;;;;;;;5.10;96.22;100491.05;1671215;85;25433;-59
2022/11/15 03:27:28;;;;;;;57.08;29.63;;;;;;;5.09;96.28;100490.25;1641094;87;25678;-59
2022/11/15 03:29:59;;;;;;;52.60;27.73;;;;;;;5.10;96.50;100488.36;1671320;85;27331;-58
2022/11/15 03:32:31;;;;;;;57.00;28.90;;;;;;;5.07;96.43;100481.64;1670599;85;25702;-57
2022/11/15 03:35:12;;;;;;;56.75;28.92;;;;;;;5.05;96.47;100471.19;1640955;87;25577;-58
2022/11/15 03:37:49;;;;;;;55.75;29.10;;;;;;;5.04;96.64;100463.44;1671207;85;25676;-59
2022/11/15 03:40:21;;;;;;;68.37;31.05;;;;;;;5.03;96.62;100461.81;1641047;87;25534;-59
2022/11/15 03:42:59;;;;;;;58.87;28.98;;;;;;;5.03;96.70;100463.95;1671154;84;27396;-59
2022/11/15 03:45:33;;;;;;;58.40;29.07;;;;;;;5.03;96.73;100451.89;1669932;84;25551;-58
2022/11/15 03:48:06;;;;;;;63.85;30.20;;;;;;;5.04;96.82;100456.19;1640918;87;25546;-57
2022/11/15 03:50:34;;;;;;;61.53;29.87;;;;;;;5.06;96.84;100453.24;1670697;84;25974;-57
2022/11/15 03:53:01;;;;;;;61.13;31.20;;;;;;;5.07;96.87;100450.02;1641030;87;25556;-59
2022/11/15 03:55:27;;;;;;;60.67;30.30;;;;;;;5.08;96.99;100446.27;1671228;85;27336;-58
2022/11/15 03:57:59;;;;;;;59.67;29.98;;;;;;;5.08;96.98;100436.34;1690849;81;25609;-59
2022/11/15 04:00:26;;;;;;;60.67;29.57;;;;;;;5.06;96.87;100435.81;1769320;81;25566;-60
2022/11/15 04:02:53;;;;;;;56.50;27.82;;;;;;;5.06;96.76;100423.75;1769187;81;25600;-59
2022/11/15 04:05:19;;;;;;;57.53;28.57;;;;;;;5.05;96.82;100430.97;1769311;81;25471;-60
2022/11/15 04:07:47;;;;;;;59.08;27.60;;;;;;;5.03;96.77;100437.69;1769297;80;27322;-59
2022/11/15 04:10:16;;;;;;;50.52;27.60;;;;;;;5.00;96.76;100424.27;1723592;83;25466;-58
2022/11/15 04:12:50;;;;;;;51.75;26.40;;;;;;;5.00;96.77;100426.15;1785062;80;25779;-59
2022/11/15 04:15:18;;;;;;;53.55;27.58;;;;;;;4.99;96.88;100426.70;1777031;80;25628;-59
2022/11/15 04:17:51;;;;;;;57.15;28.38;;;;;;;5.01;96.91;100426.44;1698049;84;25603;-60
2022/11/15 04:26:05;;;;;;;54.85;27.35;;;;;;;5.01;97.06;100413.03;1714589;83;25542;-58
2022/11/15 04:28:32;;;;;;;53.13;28.10;;;;;;;5.01;96.90;100421.07;1714360;83;25632;-58
2022/11/15 04:30:59;;;;;;;57.95;27.82;;;;;;;4.99;97.03;100417.86;1714281;83;25402;-61
2022/11/15 04:33:26;;;;;;;55.35;27.98;;;;;;;4.97;97.04;100409.26;1714265;83;27345;-59
2022/11/15 04:38:37;;;;;;;56.60;27.60;;;;;;;4.99;97.21;100409.27;1714340;83;25619;-61
2022/11/15 04:41:04;;;;;;;53.83;26.45;;;;;;;5.00;97.32;100416.77;1714307;83;25458;-59
2022/11/15 04:43:30;;;;;;;55.65;28.20;;;;;;;4.98;97.28;100404.97;1714361;83;25438;-60
2022/11/15 04:45:57;;;;;;;57.03;28.77;;;;;;;4.95;97.17;100408.18;1714321;83;27936;-60
2022/11/15 04:48:23;;;;;;;63.85;29.50;;;;;;;4.94;97.28;100403.09;1776217;80;32688;-60
2022/11/15 04:50:49;;;;;;;59.67;29.37;;;;;;;4.93;97.31;100396.93;1786418;80;25396;-59
2022/11/15 04:53:16;;;;;;;60.63;29.02;;;;;;;4.93;97.43;100399.61;1777692;80;26098;-60
2022/11/15 04:55:47;;;;;;;58.63;28.90;;;;;;;4.93;97.56;100403.63;1777682;79;25614;-59
2022/11/15 04:58:13;;;;;;;58.92;29.75;;;;;;;4.93;97.52;100398.81;1777758;80;27390;-59
2022/11/15 05:00:40;;;;;;;56.98;27.30;;;;;;;4.92;97.51;100395.34;1777594;80;27190;-59
2022/11/15 05:05:51;;;;;;;58.78;27.67;;;;;;;4.92;97.60;100393.17;1777644;80;25559;-60
2022/11/15 05:08:17;;;;;;;56.60;26.45;;;;;;;4.95;97.65;100394.78;1777720;80;25385;-59
2022/11/15 05:10:43;;;;;;;58.02;28.07;;;;;;;4.94;97.48;100394.53;1777664;80;28127;-59
2022/11/15 05:13:10;;;;;;;59.42;26.68;;;;;;;4.94;97.49;100393.70;1769697;80;25535;-60
2022/11/15 05:15:36;;;;;;;60.17;29.00;;;;;;;4.97;97.60;100389.16;1723544;83;25630;-59
2022/11/15 05:18:03;;;;;;;60.55;27.40;;;;;;;4.97;97.46;100390.49;1783142;80;27570;-60
2022/11/15 05:20:29;;;;;;;57.00;27.50;;;;;;;4.97;97.56;100381.94;1783237;80;25632;-60
2022/11/15 05:22:55;;;;;;;61.83;28.17;;;;;;;4.98;97.38;100380.05;1723543;83;27325;-59
2022/11/15 05:25:23;;;;;;;64.85;28.45;;;;;;;4.98;97.29;100389.43;1783074;80;25540;-59
2022/11/15 05:27:49;;;;;;;52.33;26.12;;;;;;;4.97;97.37;100379.77;1783211;80;25573;-60
2022/11/15 05:30:17;;;;;;;61.20;28.75;;;;;;;4.96;97.31;100376.84;1783163;80;25593;-58
2022/11/15 05:32:45;;;;;;;58.23;29.25;;;;;;;4.96;97.41;100378.18;1783225;80;25576;-57
2022/11/15 05:35:29;;;;;;;60.58;29.12;;;;;;;4.93;97.43;100375.48;1783230;80;27342;-58
2022/11/15 05:37:55;;;;;;;61.95;29.48;;;;;;;4.96;97.48;100372.81;1670511;85;25553;-58
2022/11/15 05:40:21;;;;;;;68.07;30.10;;;;;;;4.94;97.47;100379.78;1671652;85;25534;-59
2022/11/15 05:42:48;;;;;;;65.57;29.70;;;;;;;4.94;97.57;100378.45;1671611;85;25650;-59
2022/11/15 05:45:16;;;;;;;64.12;29.52;;;;;;;4.95;97.63;100379.23;1671677;85;25547;-59
2022/11/15 05:47:44;;;;;;;63.63;29.05;;;;;;;4.94;97.72;100381.12;1671658;85;27577;-59
2022/11/15 05:50:15;;;;;;;65.75;28.47;;;;;;;4.95;97.67;100379.23;1671566;85;25881;-60
2022/11/15 05:52:43;;;;;;;63.92;29.02;;;;;;;4.94;97.69;100377.62;1671662;85;25619;-59
2022/11/15 05:55:09;;;;;;;69.90;29.50;;;;;;;4.93;97.63;100378.71;1671615;85;25713;-60
2022/11/15 05:57:36;;;;;;;72.30;31.33;;;;;;;4.91;97.60;100379.52;1671673;85;25645;-60
2022/11/15 06:00:06;;;;;;;68.67;31.33;;;;;;;4.90;97.62;100380.58;1671632;85;27489;-60
2022/11/15 06:02:32;;;;;;;72.75;30.65;;;;;;;4.86;97.58;100381.11;1671723;85;25644;-61
2022/11/15 06:04:58;;;;;;;76.72;30.45;;;;;;;4.85;97.72;100369.31;1671653;85;25517;-60
2022/11/15 06:07:24;;;;;;;66.45;30.12;;;;;;;4.82;97.92;100377.38;1671568;85;25632;-60
2022/11/15 06:09:50;;;;;;;69.90;29.35;;;;;;;4.82;97.94;100372.02;1671644;85;25640;-60
2022/11/15 06:12:17;;;;;;;72.70;30.68;;;;;;;4.82;98.05;100372.56;1662267;85;27347;-59
2022/11/15 06:14:43;;;;;;;70.10;29.90;;;;;;;4.84;98.18;100375.77;1678724;82;25733;-60
2022/11/15 06:17:09;;;;;;;63.92;29.55;;;;;;;4.83;98.16;100372.81;1733904;82;25465;-60
2022/11/15 06:19:35;;;;;;;70.55;30.15;;;;;;;4.84;98.30;100377.11;1733911;82;34655;-61
2022/11/15 06:22:01;;;;;;;73.40;30.65;;;;;;;4.84;98.29;100378.45;1733894;82;25571;-60
2022/11/15 06:24:28;;;;;;;74.58;32.05;;;;;;;4.85;98.52;100376.02;1733943;82;27343;-60
2022/11/15 06:26:55;;;;;;;69.62;30.57;;;;;;;4.89;98.66;100377.62;1657761;85;25812;-60
2022/11/15 06:29:21;;;;;;;70.45;30.60;;;;;;;4.92;98.60;100383.28;1733166;82;25634;-60
2022/11/15 06:31:47;;;;;;;80.28;32.83;;;;;;;4.94;98.52;100377.62;1733866;82;26005;-60
2022/11/15 06:34:14;;;;;;;76.87;31.02;;;;;;;4.95;98.39;100371.20;1733926;82;25612;-61
2022/11/15 06:36:40;;;;;;;73.47;32.35;;;;;;;4.96;98.32;100372.27;1733988;82;27386;-60
2022/11/15 06:39:07;;;;;;;75.83;32.90;;;;;;;4.96;98.29;100378.18;1713002;82;25966;-59
2022/11/15 06:41:37;;;;;;;70.60;30.02;;;;;;;4.95;98.35;100381.38;1733875;82;25651;-58
2022/11/15 06:44:03;;;;;;;68.17;28.30;;;;;;;4.96;98.32;100384.34;1733841;82;25575;-61
2022/11/15 06:46:30;;;;;;;65.20;28.50;;;;;;;4.94;98.17;100378.45;1733949;82;25465;-60
2022/11/15 06:48:56;;;;;;;68.97;27.27;;;;;;;4.94;98.18;100384.33;1733899;82;27433;-60
2022/11/15 06:51:22;;;;;;;69.50;29.50;;;;;;;4.92;98.02;100389.16;1661705;84;25670;-61
2022/11/15 06:53:48;;;;;;;64.10;26.85;;;;;;;4.90;98.12;100384.05;1730800;82;25442;-60
2022/11/15 06:56:14;;;;;;;69.95;28.95;;;;;;;4.93;98.39;100389.44;1730724;82;25494;-60
2022/11/15 06:58:41;;;;;;;65.97;28.55;;;;;;;4.92;98.39;100381.94;1725939;82;25401;-61
2022/11/15 07:01:11;;;;;;;60.90;26.35;;;;;;;4.91;98.24;100388.91;1723233;83;27338;-61
2022/11/15 07:03:41;;;;;;;65.80;27.73;;;;;;;4.89;98.15;100378.96;1723211;82;25670;-62
2022/11/15 07:06:09;;;;;;;64.42;28.20;;;;;;;4.88;98.18;100389.44;1682516;84;25492;-61
2022/11/15 07:08:37;;;;;;;72.55;28.95;;;;;;;4.89;98.45;100384.33;1723202;83;25415;-61
2022/11/15 07:11:08;;;;;;;77.60;29.90;;;;;;;4.91;98.57;100391.04;1723166;83;25627;-60
2022/11/15 07:13:37;;;;;;;71.90;31.07;;;;;;;4.93;98.61;100388.09;1748103;81;27539;-61
2022/11/15 07:16:06;;;;;;;75.87;31.33;;;;;;;4.94;98.62;100385.66;1710964;83;25597;-62
2022/11/15 07:18:38;;;;;;;;;;;;;;;4.95;98.68;100383.27;1755835;81;25707;-61
2022/11/15 07:21:09;;;;;;;72.75;28.95;;;;;;;4.96;98.66;100382.20;1753161;81;27541;-61
2022/11/15 07:23:40;;;;;;;66.30;27.30;;;;;;;4.94;98.57;100385.66;1753227;81;25456;-61
2022/11/15 07:26:08;;;;;;;71.90;29.95;;;;;;;4.91;98.38;100376.84;1753226;81;27356;-61
2022/11/15 07:28:36;;;;;;;67.37;28.50;;;;;;;4.90;98.48;100378.70;1753150;81;25396;-62
2022/11/15 07:31:07;;;;;;;71.42;28.52;;;;;;;4.90;98.77;100378.70;1753209;81;25546;-61
2022/11/15 07:33:34;;;;;;;63.00;27.35;;;;;;;4.91;98.73;100383.00;1753297;81;25943;-61
2022/11/15 07:36:03;;;;;;;62.93;27.27;;;;;;;4.92;98.73;100381.11;1753263;81;25426;-62
2022/11/15 07:38:33;;;;;;;58.83;25.57;;;;;;;4.91;98.66;100387.02;1753350;81;27334;-61
2022/11/15 07:41:04;;;;;;;56.33;25.05;;;;;;;4.89;98.48;100376.28;1753287;81;25670;-61
2022/11/15 07:43:33;;;;;;;62.43;26.50;;;;;;;4.90;98.50;100376.02;1752382;81;25415;-60
2022/11/15 07:46:09;;;;;;;60.70;24.92;;;;;;;4.92;98.62;100378.44;1753284;81;26138;-61
2022/11/15 07:48:40;;;;;;;57.65;26.40;;;;;;;4.93;98.63;100378.71;1710971;83;25625;-61
2022/11/15 07:51:13;;;;;;;64.07;26.60;;;;;;;4.94;98.79;100377.11;1753265;81;27990;-61
2022/11/15 07:53:39;;;;;;;56.95;24.87;;;;;;;4.94;98.57;100377.11;1710874;83;25640;-61
2022/11/15 07:56:09;;;;;;;53.40;23.67;;;;;;;4.93;98.38;100375.48;1753263;81;27746;-61
2022/11/15 07:58:36;;;;;;;60.05;25.15;;;;;;;4.91;98.27;100372.82;1753201;81;25418;-64
2022/11/15 08:01:05;;;;;;;67.22;26.40;;;;;;;4.87;98.26;100372.56;1753275;81;25433;-61
2022/11/15 08:03:33;;;;;;;66.30;26.75;;;;;;;4.89;98.62;100366.39;1753371;81;27385;-62
2022/11/15 08:06:00;;;;;;;70.90;27.55;;;;;;;4.90;98.80;100367.97;1753149;81;25471;-61
2022/11/15 08:08:26;;;;;;;58.80;26.73;;;;;;;4.90;98.86;100358.59;1753239;81;25456;-61
2022/11/15 08:10:52;;;;;;;63.75;25.85;;;;;;;4.95;99.08;100359.93;1753331;81;25529;-61
2022/11/15 08:13:21;;;;;;;69.42;26.40;;;;;;;4.95;98.82;100355.11;1756254;81;25586;-61
2022/11/15 08:15:47;;;;;;;70.03;29.30;;;;;;;4.96;98.96;100342.78;1758734;81;27924;-62
2022/11/15 08:18:16;;;;;;;65.22;29.02;;;;;;;4.98;99.16;100345.99;1713250;83;25398;-61
2022/11/15 08:20:43;;;;;;;67.50;27.82;;;;;;;5.00;98.82;100343.05;1763945;81;25425;-60
2022/11/15 08:23:12;;;;;;;66.45;28.05;;;;;;;4.97;98.54;100339.55;1763814;81;25680;-60
2022/11/15 08:25:41;;;;;;;69.53;28.95;;;;;;;4.96;98.64;100332.06;1713477;83;25654;-60
2022/11/15 08:28:10;;;;;;;75.08;28.60;;;;;;;5.02;99.27;100334.19;1763904;81;27300;-60
2022/11/15 08:30:42;;;;;;;71.87;28.27;;;;;;;5.06;99.42;100337.95;1763764;81;25394;-61
2022/11/15 08:33:14;;;;;;;62.13;27.40;;;;;;;5.07;99.02;100336.86;1713360;83;25444;-61
2022/11/15 08:35:44;;;;;;;70.08;28.42;;;;;;;5.06;98.72;100332.59;1763789;81;25558;-61
2022/11/15 08:38:11;;;;;;;63.85;26.75;;;;;;;5.08;98.90;100330.44;1763972;81;25461;-60
2022/11/15 08:40:38;;;;;;;61.77;26.07;;;;;;;5.07;98.58;100328.81;1763807;81;27336;-61
2022/11/15 08:43:06;;;;;;;69.87;29.52;;;;;;;5.07;98.51;100331.50;1763745;81;27163;-62
2022/11/15 08:45:35;;;;;;;58.17;26.73;;;;;;;5.07;98.57;100326.69;1713350;83;25867;-62
2022/11/15 08:48:04;;;;;;;65.70;28.02;;;;;;;5.04;98.32;100326.16;1763937;81;25445;-60
2022/11/15 08:50:31;;;;;;;71.87;29.25;;;;;;;5.00;98.22;100326.41;1713338;83;25575;-61
2022/11/15 08:53:00;;;;;;;68.05;28.38;;;;;;;5.02;98.27;100324.80;1763761;81;27338;-60
2022/11/15 08:55:26;;;;;;;62.58;29.23;;;;;;;5.01;98.41;100322.67;1763847;81;25855;-58
2022/11/15 08:57:52;;;;;;;61.92;27.90;;;;;;;5.03;98.60;100317.84;1713336;83;25391;-61
2022/11/15 09:00:19;;;;;;;56.68;25.90;;;;;;;5.02;98.42;100320.27;1763756;81;25567;-62
2022/11/15 09:02:46;;;;;;;62.88;26.17;;;;;;;5.03;98.54;100321.86;1713373;83;25644;-60
2022/11/15 09:05:12;;;;;;;67.15;27.20;;;;;;;5.04;98.50;100326.16;1763804;81;27385;-61
2022/11/15 09:07:38;;;;;;;66.17;27.55;;;;;;;5.04;98.43;100313.30;1763691;81;25603;-62
2022/11/15 09:10:07;;;;;;;62.73;27.50;;;;;;;5.03;98.32;100315.16;1763742;81;25461;-60
2022/11/15 09:12:33;;;;;;;61.23;26.87;;;;;;;5.05;98.60;100322.38;1764124;81;25927;-60
2022/11/15 09:14:59;;;;;;;56.00;27.30;;;;;;;5.05;98.41;100316.23;1767073;81;25580;-61
2022/11/15 09:17:26;;;;;;;53.42;26.73;;;;;;;5.03;98.03;100313.81;1707951;83;29428;-61
2022/11/15 09:19:52;;;;;;;51.73;25.25;;;;;;;5.01;97.86;100315.17;1722655;82;25430;-62
2022/11/15 09:22:19;;;;;;;54.33;26.85;;;;;;;4.97;97.66;100306.88;1722271;83;25619;-62
2022/11/15 09:24:45;;;;;;;57.75;26.40;;;;;;;4.94;97.70;100302.05;1715984;83;25588;-62
2022/11/15 09:27:12;;;;;;;57.85;26.10;;;;;;;4.95;97.79;100294.80;1714348;83;25643;-62
2022/11/15 09:29:39;;;;;;;54.23;24.43;;;;;;;4.96;98.24;100292.40;1714319;83;27288;-62
2022/11/15 09:32:06;;;;;;;55.78;26.42;;;;;;;4.99;98.48;100289.19;1714119;83;25628;-60
2022/11/15 09:34:32;;;;;;;52.78;25.82;;;;;;;5.03;98.62;100285.66;1714320;83;25596;-62
2022/11/15 09:36:58;;;;;;;61.48;26.57;;;;;;;5.07;98.65;100285.13;1714267;83;25483;-63
2022/11/15 09:39:24;;;;;;;59.53;27.42;;;;;;;5.07;98.20;100280.56;1701345;82;25397;-62
2022/11/15 09:41:57;;;;;;;59.03;26.75;;;;;;;5.07;98.22;100279.22;1772607;80;27340;-61
2022/11/15 09:44:30;;;;;;;60.80;27.70;;;;;;;5.13;98.66;100274.12;1769147;81;25551;-61
2022/11/15 09:47:38;;;;;;;59.10;27.70;;;;;;;5.17;98.70;100267.13;1708132;83;25470;-62
2022/11/15 09:50:19;;;;;;;54.15;25.08;;;;;;;5.19;98.55;100263.65;1715532;82;25426;-61
2022/11/15 09:52:46;;;;;;;48.68;23.40;;;;;;;5.24;98.39;100260.13;1713873;83;25639;-61
2022/11/15 09:55:21;;;;;;;54.00;24.47;;;;;;;5.24;97.98;100259.61;1714267;83;27328;-61
2022/11/15 09:58:03;;;;;;;47.10;23.25;;;;;;;5.24;97.77;100265.49;1762976;80;25767;-61
2022/11/15 10:00:38;;;;;;;42.00;22.73;;;;;;;5.23;97.39;100259.33;1692599;84;25544;-62
2022/11/15 10:03:24;;;;;;;47.27;23.50;;;;;;;5.20;97.19;100255.85;1690961;84;27483;-63
2022/11/15 10:05:56;;;;;;;45.43;24.00;;;;;;;5.20;97.64;100251.83;1692658;84;25306;-62
2022/11/15 10:08:52;;;;;;;47.98;23.65;;;;;;;5.29;98.26;100245.36;1692741;84;27347;-62
2022/11/15 10:11:23;;;;;;;45.43;24.18;;;;;;;5.34;98.26;100245.34;1692456;84;25775;-62
2022/11/15 10:13:55;;;;;;;45.38;24.10;;;;;;;5.38;97.90;100244.24;1674105;84;25565;-62
2022/11/15 10:16:51;;;;;;;54.85;25.30;;;;;;;5.40;97.71;100237.55;1626761;88;25660;-62
2022/11/15 10:19:57;;;;;;;48.68;24.23;;;;;;;5.43;97.62;100249.06;1646148;85;25630;-62
2022/11/15 10:22:40;;;;;;;51.10;25.40;;;;;;;5.47;97.52;100254.68;1616890;88;27368;-62
2022/11/15 10:25:21;;;;;;;52.93;24.82;;;;;;;5.49;97.24;100242.34;1644540;87;25453;-62
2022/11/15 10:28:17;;;;;;;48.80;24.65;;;;;;;5.48;96.97;100252.80;1616929;88;25607;-61
2022/11/15 10:30:51;;;;;;;47.62;25.45;;;;;;;5.49;96.72;100247.16;1644656;87;25440;-63
2022/11/15 10:33:35;;;;;;;51.08;25.95;;;;;;;5.49;96.78;100244.47;1616812;88;25706;-63
2022/11/15 10:36:25;;;;;;;52.78;25.70;;;;;;;5.48;96.47;100242.86;1665392;83;28289;-63
2022/11/15 10:38:55;;;;;;;56.85;26.73;;;;;;;5.46;96.48;100237.52;1682258;84;25571;-63
2022/11/15 10:41:34;;;;;;;52.62;26.10;;;;;;;5.46;96.48;100237.52;1677782;84;25483;-63
2022/11/15 10:44:18;;;;;;;54.57;27.90;;;;;;;5.47;96.83;100234.56;1690496;84;25575;-64
2022/11/15 10:46:58;;;;;;;53.30;27.65;;;;;;;5.48;96.63;100230.78;1731013;81;25799;-63
2022/11/15 10:49:29;;;;;;;49.20;25.25;;;;;;;5.47;96.54;100215.78;1734077;82;27327;-61
2022/11/15 10:52:22;;;;;;;49.65;26.20;;;;;;;5.43;96.40;100214.20;1733952;82;25574;-62
2022/11/15 10:55:02;;;;;;;49.88;25.70;;;;;;;5.43;96.32;100217.39;1733964;82;25418;-62
2022/11/15 10:57:38;;;;;;;50.40;25.72;;;;;;;5.43;96.67;100216.05;1734025;81;25621;-60
2022/11/15 11:00:23;;;;;;;56.10;29.82;;;;;;;5.44;96.36;100220.35;1733957;82;25567;-61
2022/11/15 11:03:03;;;;;;;47.85;25.75;;;;;;;5.41;96.24;100210.17;1733126;82;27391;-68
2022/11/15 11:05:39;;;;;;;49.00;25.92;;;;;;;5.41;96.10;100217.70;1732971;82;25634;-69
2022/11/15 11:08:16;;;;;;;54.20;26.80;;;;;;;5.40;96.24;100206.69;1733971;81;25461;-69
2022/11/15 11:13:28;;;;;;;50.12;25.70;;;;;;;5.41;96.40;100206.97;1775032;77;26898;-68
2022/11/15 11:16:17;;;;;;;47.73;25.35;;;;;;;5.42;96.19;100198.38;1821908;78;27562;-69
2022/11/15 11:33:46;;;;;;;49.75;24.85;;;;;;;5.52;96.88;100192.16;1830693;77;25789;-67
2022/11/15 11:36:42;;;;;;;52.67;25.97;;;;;;;5.56;97.01;100201.24;1747154;81;25756;-62
2022/11/15 11:39:20;;;;;;;54.27;27.05;;;;;;;5.58;96.65;100195.05;1755865;81;25619;-68
2022/11/15 11:42:06;;;;;;;53.30;26.25;;;;;;;5.59;96.75;100188.63;1826454;78;27451;-68
2022/11/15 11:44:38;;;;;;;51.18;27.55;;;;;;;5.64;96.76;100186.45;1741866;81;25620;-69
2022/11/15 11:47:20;;;;;;;61.08;30.90;;;;;;;5.65;96.54;100181.33;1747452;81;27288;-69
2022/11/15 11:49:54;;;;;;;54.40;27.73;;;;;;;5.66;96.64;100168.98;1764386;81;25831;-69
2022/11/15 11:53:05;;;;;;;55.55;27.65;;;;;;;5.66;96.33;100167.64;1764425;81;25585;-67
2022/11/15 11:55:43;;;;;;;58.38;29.40;;;;;;;5.69;96.48;100173.00;1764408;81;25606;-68
2022/11/15 11:58:17;;;;;;;60.45;29.63;;;;;;;5.70;96.37;100167.33;1764436;80;25598;-68
2022/11/15 12:00:55;;;;;;;56.45;29.42;;;;;;;5.74;96.76;100160.89;1742071;81;27601;-69
2022/11/15 12:03:41;;;;;;;53.23;26.82;;;;;;;5.79;96.75;100159.51;1763090;81;25571;-68
2022/11/15 12:06:50;;;;;;;55.92;29.35;;;;;;;5.79;96.39;100150.11;1764445;81;25468;-68
2022/11/15 12:09:37;;;;;;;61.63;30.52;;;;;;;5.84;96.61;100150.08;1764496;81;25460;-68
2022/11/15 12:12:31;;;;;;;58.08;30.77;;;;;;;5.86;96.17;100143.08;1764405;81;25378;-69
2022/11/15 12:15:06;;;;;;;55.85;27.52;;;;;;;5.86;95.92;100139.84;1764446;81;27433;-69